Time;durP1;ratioP1;P1;durP2;ratioP2;P2;SDS_P1;SDS_P2;PMS_P1;PMS_P2;Temp;Humidity;BMP_temperature;BMP_pressure;BME280_temperature;BME280_humidity;BME280_pressure;Samples;Min_cycle;Max_cycle;Signal;HPM_P1;HPM_P2
2024/01/03 00:01:28;;;;;;;0.38;0.15;;;9.10;99.90;;;;;;5008017;28;20057;-80
2024/01/03 00:03:55;;;;;;;5.15;0.63;;;9.10;99.90;;;;;;5008832;28;20397;-79
2024/01/03 00:06:21;;;;;;;3.90;0.60;;;9.00;99.90;;;;;;5011017;28;20030;-79
2024/01/03 00:08:46;;;;;;;0.30;0.30;;;9.00;99.90;;;;;;5009692;28;20052;-79
2024/01/03 00:11:20;;;;;;;0.90;0.20;;;8.90;99.90;;;;;;5008485;28;20046;-78
2024/01/03 00:14:12;;;;;;;0.65;0.30;;;8.90;99.90;;;;;;5004448;28;20046;-78
2024/01/03 00:16:41;;;;;;;2.88;0.40;;;8.90;99.90;;;;;;5006993;28;20050;-79
2024/01/03 00:19:20;;;;;;;3.75;1.13;;;8.90;99.90;;;;;;5000368;28;20049;-78
2024/01/03 00:21:46;;;;;;;6.32;0.68;;;8.90;99.90;;;;;;5016644;28;20057;-78
2024/01/03 00:24:16;;;;;;;1.45;0.15;;;8.80;99.90;;;;;;5020946;28;20054;-79
2024/01/03 00:26:42;;;;;;;0.80;0.63;;;8.80;99.90;;;;;;5038822;28;20060;-78
2024/01/03 00:29:36;;;;;;;4.63;0.82;;;8.80;99.90;;;;;;5069670;28;20088;-78
2024/01/03 00:32:05;;;;;;;0.90;0.85;;;8.80;99.90;;;;;;5003070;28;20552;-79
2024/01/03 00:34:39;;;;;;;2.65;0.60;;;8.80;99.90;;;;;;5014109;28;20467;-78
2024/01/03 00:37:18;;;;;;;3.03;1.15;;;8.70;99.90;;;;;;5008990;28;20482;-79
2024/01/03 00:39:45;;;;;;;4.18;0.88;;;8.80;99.90;;;;;;4991031;28;20034;-79
2024/01/03 00:42:10;;;;;;;1.35;0.73;;;8.80;99.90;;;;;;5014830;28;20057;-79
2024/01/03 00:44:36;;;;;;;1.25;0.10;;;8.70;99.90;;;;;;5000186;28;20038;-78
2024/01/03 00:47:02;;;;;;;1.10;0.45;;;8.70;99.90;;;;;;4999778;28;20467;-79
2024/01/03 00:49:28;;;;;;;1.90;0.60;;;8.70;99.90;;;;;;5016515;28;20077;-79
2024/01/03 00:51:54;;;;;;;0.65;0.43;;;8.70;99.90;;;;;;4996825;28;20038;-78
2024/01/03 00:54:21;;;;;;;7.78;1.25;;;8.70;99.90;;;;;;5005609;28;20045;-78
2024/01/03 00:56:47;;;;;;;1.48;0.85;;;8.60;99.90;;;;;;5006605;28;20058;-79
2024/01/03 00:59:13;;;;;;;4.45;0.85;;;8.50;99.90;;;;;;5008773;28;20050;-78
2024/01/03 01:01:40;;;;;;;0.93;0.40;;;8.60;99.90;;;;;;4991927;28;20038;-77
2024/01/03 01:04:07;;;;;;;0.88;0.13;;;8.50;99.90;;;;;;5007582;28;20042;-79
2024/01/03 01:06:33;;;;;;;0.98;0.20;;;8.50;99.90;;;;;;5009743;28;20041;-77
2024/01/03 01:09:01;;;;;;;4.35;0.47;;;8.50;99.90;;;;;;4991124;28;20080;-77
2024/01/03 01:11:27;;;;;;;2.42;0.82;;;8.50;99.90;;;;;;5010103;28;20046;-78
2024/01/03 01:13:52;;;;;;;0.22;0.15;;;8.40;99.90;;;;;;5006807;28;20057;-78
2024/01/03 01:16:18;;;;;;;5.07;0.98;;;8.40;99.90;;;;;;5004153;28;20110;-78
2024/01/03 01:18:44;;;;;;;2.35;0.30;;;8.40;99.90;;;;;;5011817;28;20048;-78
2024/01/03 01:21:09;;;;;;;0.68;0.20;;;8.40;99.90;;;;;;4989174;28;20106;-78
2024/01/03 01:23:35;;;;;;;0.98;0.73;;;8.40;99.90;;;;;;5011078;28;20042;-78
2024/01/03 01:26:00;;;;;;;0.88;0.38;;;8.50;99.90;;;;;;4996131;28;20635;-79
2024/01/03 01:28:26;;;;;;;4.10;0.65;;;8.50;99.90;;;;;;5015106;28;20135;-79
2024/01/03 01:30:52;;;;;;;1.48;0.50;;;8.60;99.90;;;;;;5016192;28;20574;-78
2024/01/03 01:33:17;;;;;;;3.40;0.68;;;8.50;99.90;;;;;;5002962;28;20049;-79
2024/01/03 01:35:43;;;;;;;1.95;0.47;;;8.60;99.90;;;;;;5001815;28;20046;-78
2024/01/03 01:38:08;;;;;;;10.80;0.73;;;8.60;99.90;;;;;;5010954;28;20038;-78
2024/01/03 01:40:34;;;;;;;1.27;0.35;;;8.60;99.90;;;;;;5045451;28;20041;-78
2024/01/03 01:43:00;;;;;;;3.53;0.40;;;8.60;99.90;;;;;;5085951;28;20386;-78
2024/01/03 01:45:25;;;;;;;6.65;0.43;;;8.70;99.90;;;;;;5017962;28;20038;-77
2024/01/03 01:47:52;;;;;;;1.42;0.45;;;8.70;99.90;;;;;;5017081;28;20042;-78
2024/01/03 01:50:18;;;;;;;0.40;0.20;;;8.70;99.90;;;;;;5017625;28;20057;-78
2024/01/03 01:52:44;;;;;;;2.83;0.65;;;8.70;99.90;;;;;;5057901;28;20059;-78
2024/01/03 01:55:11;;;;;;;2.67;0.40;;;8.70;99.90;;;;;;5017875;28;20077;-75
2024/01/03 01:57:38;;;;;;;4.72;0.85;;;8.80;99.90;;;;;;5017756;28;20054;-78
2024/01/03 02:00:07;;;;;;;0.32;0.20;;;8.80;99.90;;;;;;5016022;28;20050;-78
2024/01/03 02:02:34;;;;;;;0.43;0.30;;;8.80;99.90;;;;;;5017370;28;20054;-78
2024/01/03 02:05:00;;;;;;;0.57;0.55;;;8.80;99.90;;;;;;5036217;28;20034;-78
2024/01/03 02:07:26;;;;;;;0.77;0.28;;;8.80;99.90;;;;;;5017468;28;20050;-79
2024/01/03 02:09:52;;;;;;;2.83;0.50;;;8.80;99.90;;;;;;5014519;28;20046;-78
2024/01/03 02:12:25;;;;;;;2.28;0.30;;;8.80;99.90;;;;;;5013534;28;20084;-78
2024/01/03 02:14:51;;;;;;;1.00;0.45;;;8.80;99.90;;;;;;5010103;28;20080;-78
2024/01/03 02:17:18;;;;;;;5.03;0.98;;;8.80;99.90;;;;;;5013808;28;20049;-79
2024/01/03 02:19:44;;;;;;;1.92;0.40;;;8.90;99.90;;;;;;4998246;28;20038;-79
2024/01/03 02:22:09;;;;;;;0.30;0.30;;;8.80;99.90;;;;;;5015692;28;20045;-79
2024/01/03 02:24:35;;;;;;;5.05;2.05;;;8.90;99.90;;;;;;5016482;28;20050;-79
2024/01/03 02:27:01;;;;;;;1.08;0.20;;;8.90;99.90;;;;;;4999513;28;20049;-79
2024/01/03 02:29:26;;;;;;;1.65;0.20;;;8.80;99.90;;;;;;4991636;28;20064;-79
2024/01/03 02:31:52;;;;;;;0.20;0.20;;;8.80;99.90;;;;;;4996034;28;20135;-78
2024/01/03 02:34:17;;;;;;;1.08;0.20;;;8.80;99.90;;;;;;5013884;28;20071;-80
2024/01/03 02:36:46;;;;;;;2.00;0.20;;;8.80;99.90;;;;;;4980705;28;20069;-79
2024/01/03 02:39:12;;;;;;;1.25;0.22;;;8.80;99.90;;;;;;5010899;28;20050;-79
2024/01/03 02:41:37;;;;;;;0.40;0.10;;;8.80;99.90;;;;;;5011682;28;20088;-79
2024/01/03 02:44:03;;;;;;;0.88;0.45;;;8.80;99.90;;;;;;5014690;28;20386;-78
2024/01/03 02:46:29;;;;;;;1.23;0.30;;;8.80;99.90;;;;;;5014468;28;20627;-78
2024/01/03 02:48:54;;;;;;;2.53;0.38;;;8.80;99.90;;;;;;5013730;28;20038;-78
2024/01/03 02:51:23;;;;;;;4.13;0.73;;;8.70;99.90;;;;;;5011400;28;20046;-78
2024/01/03 02:53:49;;;;;;;3.05;0.40;;;8.70;99.90;;;;;;4996396;28;20098;-79
2024/01/03 02:56:15;;;;;;;2.17;0.60;;;8.80;99.90;;;;;;4997694;28;20042;-78
2024/01/03 02:58:40;;;;;;;3.53;0.50;;;8.80;99.90;;;;;;5015332;28;20042;-78
2024/01/03 03:01:07;;;;;;;2.20;0.85;;;8.80;99.90;;;;;;5010774;28;20046;-79
2024/01/03 03:03:33;;;;;;;5.28;0.82;;;8.80;99.90;;;;;;5012180;28;20042;-78
2024/01/03 03:06:00;;;;;;;1.25;0.60;;;8.80;99.90;;;;;;5014763;28;20056;-78
2024/01/03 03:08:25;;;;;;;0.63;0.63;;;8.80;99.90;;;;;;5014124;28;20038;-79
2024/01/03 03:10:51;;;;;;;4.28;0.75;;;8.80;99.90;;;;;;5015800;28;20073;-79
2024/01/03 03:13:17;;;;;;;1.75;0.82;;;8.90;99.90;;;;;;4998353;28;20098;-78
2024/01/03 03:15:43;;;;;;;13.27;1.27;;;8.80;99.90;;;;;;5013834;28;20050;-79
2024/01/03 03:18:09;;;;;;;5.55;1.08;;;8.80;99.90;;;;;;5013544;28;20061;-80
2024/01/03 03:20:35;;;;;;;6.90;0.93;;;8.90;99.90;;;;;;5016809;28;20054;-79
2024/01/03 03:23:00;;;;;;;9.00;0.90;;;8.90;99.90;;;;;;5005425;28;20065;-78
2024/01/03 03:25:26;;;;;;;4.45;0.85;;;8.80;99.90;;;;;;5021293;28;20072;-79
2024/01/03 03:27:52;;;;;;;5.28;1.08;;;8.90;99.90;;;;;;5015159;28;20050;-78
2024/01/03 03:30:17;;;;;;;7.00;0.85;;;8.90;99.90;;;;;;5014290;28;20050;-79
2024/01/03 03:32:45;;;;;;;12.50;1.35;;;8.90;99.90;;;;;;5014691;28;20065;-78
2024/01/03 03:35:14;;;;;;;4.82;1.52;;;9.00;99.90;;;;;;5015371;28;20045;-80
2024/01/03 03:37:40;;;;;;;3.10;0.55;;;9.10;99.90;;;;;;5013932;28;20042;-77
2024/01/03 03:40:07;;;;;;;3.85;1.30;;;9.10;99.90;;;;;;5008243;28;20080;-78
2024/01/03 03:42:33;;;;;;;4.95;0.77;;;9.20;99.90;;;;;;5014310;28;20410;-78
2024/01/03 03:44:59;;;;;;;4.30;0.98;;;9.20;99.90;;;;;;5015947;28;20042;-79
2024/01/03 03:47:25;;;;;;;7.47;1.20;;;9.30;99.90;;;;;;5013046;28;20047;-79
2024/01/03 03:49:51;;;;;;;9.13;0.60;;;9.30;99.90;;;;;;5021298;28;20034;-79
2024/01/03 03:52:16;;;;;;;13.30;1.42;;;9.30;99.90;;;;;;5014761;28;20509;-79
2024/01/03 03:54:42;;;;;;;13.50;2.08;;;9.30;99.90;;;;;;5016189;28;20528;-79
2024/01/03 03:57:08;;;;;;;1.00;0.70;;;9.40;99.90;;;;;;4982617;28;20038;-78
2024/01/03 03:59:34;;;;;;;3.33;0.88;;;9.40;99.90;;;;;;5038351;28;20133;-78
2024/01/03 04:01:59;;;;;;;6.07;1.13;;;9.40;99.90;;;;;;5029062;28;20098;-78
2024/01/03 04:04:25;;;;;;;9.80;1.17;;;9.40;99.90;;;;;;5019031;28;20155;-79
2024/01/03 04:06:51;;;;;;;7.63;1.02;;;9.40;99.90;;;;;;4998256;28;20042;-80
2024/01/03 04:09:19;;;;;;;3.05;0.57;;;9.50;99.90;;;;;;5014734;28;20065;-79
2024/01/03 04:11:45;;;;;;;3.22;0.73;;;9.40;99.90;;;;;;5009377;28;20057;-79
2024/01/03 04:14:11;;;;;;;4.53;1.17;;;9.40;99.90;;;;;;5014831;28;20063;-79
2024/01/03 04:16:37;;;;;;;5.75;0.98;;;9.30;99.90;;;;;;4998925;28;20042;-79
2024/01/03 04:19:02;;;;;;;5.75;1.58;;;9.30;99.90;;;;;;5025043;28;20534;-79
2024/01/03 04:21:31;;;;;;;4.78;0.75;;;9.30;99.90;;;;;;5014278;28;20045;-79
2024/01/03 04:23:58;;;;;;;9.82;2.20;;;9.30;99.90;;;;;;5022763;28;20029;-79
2024/01/03 04:26:23;;;;;;;9.38;1.25;;;9.30;99.90;;;;;;5022149;28;20046;-79
2024/01/03 04:28:49;;;;;;;7.15;1.63;;;9.30;99.90;;;;;;5013327;28;20410;-79
2024/01/03 04:31:15;;;;;;;4.20;1.70;;;9.40;99.90;;;;;;5079444;28;20057;-79
2024/01/03 04:33:41;;;;;;;1.98;0.75;;;9.40;99.90;;;;;;5029399;28;20032;-79
2024/01/03 04:36:07;;;;;;;13.63;1.95;;;9.30;99.90;;;;;;5059117;28;20132;-78
2024/01/03 04:38:33;;;;;;;5.68;1.58;;;9.40;99.90;;;;;;5013154;28;20042;-79
2024/01/03 04:40:58;;;;;;;3.58;1.65;;;9.40;99.90;;;;;;5012500;28;20114;-79
2024/01/03 04:43:24;;;;;;;2.20;0.70;;;9.40;99.90;;;;;;5006345;28;20106;-78
2024/01/03 04:45:50;;;;;;;7.88;1.77;;;9.40;99.90;;;;;;5015172;28;20049;-78
2024/01/03 04:48:16;;;;;;;7.32;0.98;;;9.40;99.90;;;;;;5016480;28;20042;-79
2024/01/03 04:50:41;;;;;;;11.63;0.98;;;9.50;99.90;;;;;;5014246;28;20110;-78
2024/01/03 04:53:07;;;;;;;8.05;1.40;;;9.50;99.90;;;;;;5014937;28;20066;-78
2024/01/03 04:55:33;;;;;;;10.85;1.40;;;9.50;99.90;;;;;;5013036;28;20050;-78
2024/01/03 04:57:59;;;;;;;6.22;1.35;;;9.60;99.90;;;;;;5013060;28;20057;-78
2024/01/03 05:00:25;;;;;;;8.77;1.02;;;9.60;99.90;;;;;;5000212;28;20452;-78
2024/01/03 05:02:52;;;;;;;3.40;1.02;;;9.50;99.90;;;;;;5016168;28;20238;-78
2024/01/03 05:05:17;;;;;;;6.85;1.17;;;9.60;99.90;;;;;;4999725;28;20054;-78
2024/01/03 05:07:43;;;;;;;8.38;1.30;;;9.60;99.90;;;;;;5006297;28;20061;-77
2024/01/03 05:10:09;;;;;;;3.33;0.93;;;9.60;99.90;;;;;;5028647;28;20452;-78
2024/01/03 05:12:36;;;;;;;8.95;1.48;;;9.60;99.90;;;;;;5022786;28;20052;-79
2024/01/03 05:15:04;;;;;;;11.02;2.25;;;9.70;99.90;;;;;;5011138;28;20042;-79
2024/01/03 05:17:29;;;;;;;6.53;1.75;;;9.70;99.90;;;;;;5014956;28;20045;-79
2024/01/03 05:19:57;;;;;;;9.70;1.08;;;9.70;99.90;;;;;;4986325;28;20049;-78
2024/01/03 05:22:22;;;;;;;11.65;1.60;;;9.70;99.90;;;;;;5017191;28;20053;-79
2024/01/03 05:24:48;;;;;;;12.07;1.02;;;9.70;99.90;;;;;;5002083;28;20042;-79
2024/01/03 05:27:14;;;;;;;10.00;2.65;;;9.60;99.90;;;;;;5017823;28;20042;-78
2024/01/03 05:29:39;;;;;;;7.43;1.38;;;9.70;99.90;;;;;;5001180;28;20050;-78
2024/01/03 05:32:05;;;;;;;8.15;1.73;;;9.70;99.90;;;;;;4968676;28;20130;-78
2024/01/03 05:34:31;;;;;;;20.58;1.83;;;9.70;99.90;;;;;;5016001;28;20081;-78
2024/01/03 05:36:57;;;;;;;11.05;0.98;;;9.60;99.90;;;;;;5017119;28;20057;-78
2024/01/03 05:39:22;;;;;;;4.45;1.13;;;9.60;99.90;;;;;;5015780;28;20046;-77
2024/01/03 05:41:49;;;;;;;8.50;1.58;;;9.60;99.90;;;;;;5016380;28;20054;-77
2024/01/03 05:44:15;;;;;;;7.68;1.20;;;9.70;99.90;;;;;;5012600;28;20068;-77
2024/01/03 05:46:42;;;;;;;3.65;1.25;;;9.70;99.90;;;;;;5079776;28;20059;-77
2024/01/03 05:49:08;;;;;;;6.63;1.15;;;9.70;99.90;;;;;;5002454;28;20034;-77
2024/01/03 05:51:33;;;;;;;10.07;1.13;;;9.70;99.90;;;;;;4998820;28;20137;-78
2024/01/03 05:54:00;;;;;;;18.40;1.90;;;9.70;99.90;;;;;;5016980;28;20067;-78
2024/01/03 05:56:27;;;;;;;11.40;1.80;;;9.60;99.90;;;;;;4993534;28;20074;-78
2024/01/03 05:58:53;;;;;;;13.20;1.08;;;9.60;99.90;;;;;;5016858;28;20042;-78
2024/01/03 06:01:18;;;;;;;12.82;1.45;;;9.60;99.90;;;;;;5012922;28;20065;-78
2024/01/03 06:03:44;;;;;;;7.30;0.95;;;9.60;99.90;;;;;;5014177;28;20037;-77
2024/01/03 06:06:10;;;;;;;11.00;1.65;;;9.60;99.90;;;;;;4998681;28;20034;-77
2024/01/03 06:08:36;;;;;;;3.53;0.90;;;9.60;99.90;;;;;;5016094;28;20091;-78
2024/01/03 06:11:01;;;;;;;4.45;0.90;;;9.70;99.90;;;;;;4992246;28;20053;-78
2024/01/03 06:13:28;;;;;;;5.07;1.08;;;9.70;99.90;;;;;;5013636;28;20050;-77
2024/01/03 06:15:54;;;;;;;5.03;0.90;;;9.70;99.90;;;;;;5013177;28;20049;-78
2024/01/03 06:18:21;;;;;;;7.28;0.93;;;9.80;99.90;;;;;;4995738;28;20042;-78
2024/01/03 06:20:47;;;;;;;4.63;1.27;;;9.80;99.90;;;;;;4973004;28;20035;-77
2024/01/03 06:23:12;;;;;;;10.77;0.93;;;9.80;99.90;;;;;;5014784;28;20046;-77
2024/01/03 06:25:38;;;;;;;3.13;1.05;;;9.80;99.90;;;;;;4997516;28;20038;-77
2024/01/03 06:28:05;;;;;;;6.32;0.80;;;9.80;99.90;;;;;;4995807;28;20046;-77
2024/01/03 06:30:30;;;;;;;16.67;1.05;;;9.80;99.90;;;;;;5008101;28;20053;-78
2024/01/03 06:32:56;;;;;;;4.50;1.15;;;9.80;99.90;;;;;;4997674;28;20043;-77
2024/01/03 06:35:22;;;;;;;8.82;1.52;;;9.80;99.90;;;;;;5012666;28;20050;-78
2024/01/03 06:37:48;;;;;;;4.47;1.85;;;9.80;99.90;;;;;;4994146;28;20434;-77
2024/01/03 06:40:14;;;;;;;16.48;1.48;;;9.80;99.90;;;;;;4998435;28;20042;-78
2024/01/03 06:42:40;;;;;;;7.22;1.08;;;9.70;99.90;;;;;;4966785;28;20061;-78
2024/01/03 06:45:06;;;;;;;11.40;1.80;;;9.70;99.90;;;;;;4998117;28;20042;-77
2024/01/03 06:47:32;;;;;;;6.15;0.82;;;9.80;99.90;;;;;;4993869;28;20072;-77
2024/01/03 06:49:57;;;;;;;4.00;1.30;;;9.70;99.90;;;;;;4998971;28;20071;-77
2024/01/03 06:52:23;;;;;;;19.50;3.17;;;9.80;99.90;;;;;;5010020;28;20525;-77
2024/01/03 06:54:49;;;;;;;6.20;1.45;;;9.80;99.90;;;;;;5014359;28;20038;-77
2024/01/03 06:57:15;;;;;;;2.25;0.80;;;9.70;99.90;;;;;;4997077;28;20042;-77
2024/01/03 06:59:41;;;;;;;16.27;1.58;;;9.70;99.90;;;;;;5014627;28;20048;-77
2024/01/03 07:02:07;;;;;;;6.68;1.35;;;9.80;99.90;;;;;;4997258;28;20073;-77
2024/01/03 07:04:33;;;;;;;3.83;0.93;;;9.70;99.90;;;;;;4995261;28;20054;-77
2024/01/03 07:06:59;;;;;;;13.70;1.73;;;9.70;99.90;;;;;;5012248;28;20037;-78
2024/01/03 07:09:25;;;;;;;3.92;1.08;;;9.70;99.90;;;;;;4997796;28;20054;-77
2024/01/03 07:11:50;;;;;;;21.98;1.77;;;9.60;99.90;;;;;;5012229;28;20078;-77
2024/01/03 07:14:16;;;;;;;7.18;1.40;;;9.60;99.90;;;;;;4992519;28;20143;-77
2024/01/03 07:16:42;;;;;;;3.33;0.73;;;9.60;99.90;;;;;;4979115;28;20117;-78
2024/01/03 07:19:07;;;;;;;11.23;1.77;;;9.50;99.90;;;;;;4987821;28;20069;-78
2024/01/03 07:21:33;;;;;;;9.13;1.45;;;9.50;99.90;;;;;;5009746;28;20045;-77
2024/01/03 07:23:59;;;;;;;9.27;1.00;;;9.50;99.90;;;;;;4995158;28;20048;-77
2024/01/03 07:26:25;;;;;;;15.25;1.17;;;9.50;99.90;;;;;;5008178;28;20079;-78
2024/01/03 07:28:51;;;;;;;13.60;1.30;;;9.50;99.90;;;;;;5009151;28;20034;-77
2024/01/03 07:31:16;;;;;;;4.78;0.75;;;9.60;99.90;;;;;;5009697;28;20045;-77
2024/01/03 07:33:42;;;;;;;11.65;1.50;;;9.50;99.90;;;;;;4981581;28;20051;-77
2024/01/03 07:36:08;;;;;;;8.27;1.17;;;9.60;99.90;;;;;;4992324;28;20513;-77
2024/01/03 07:38:34;;;;;;;6.35;1.10;;;9.60;99.90;;;;;;5008531;28;20030;-80
2024/01/03 07:41:00;;;;;;;11.27;1.13;;;9.60;99.90;;;;;;5011008;28;20049;-77
2024/01/03 07:43:29;;;;;;;2.47;0.82;;;9.60;99.90;;;;;;5014626;28;20053;-77
2024/01/03 07:45:55;;;;;;;4.40;0.95;;;9.50;99.90;;;;;;5015494;28;20048;-77
2024/01/03 07:48:21;;;;;;;7.13;1.15;;;9.50;99.90;;;;;;5015307;28;20502;-77
2024/01/03 07:50:47;;;;;;;6.60;1.40;;;9.50;99.90;;;;;;5016011;28;20052;-77
2024/01/03 07:53:12;;;;;;;12.00;1.33;;;9.50;99.90;;;;;;4999558;28;20046;-77
2024/01/03 07:55:38;;;;;;;10.55;1.17;;;9.50;99.90;;;;;;4998046;28;20057;-77
2024/01/03 07:58:04;;;;;;;16.25;1.95;;;9.50;99.90;;;;;;4983817;28;20105;-77
2024/01/03 08:00:30;;;;;;;12.45;0.98;;;9.50;99.90;;;;;;4998652;28;20070;-77
2024/01/03 08:02:56;;;;;;;9.70;1.23;;;9.50;99.90;;;;;;5017193;28;20046;-77
2024/01/03 08:05:22;;;;;;;10.98;1.80;;;9.50;99.90;;;;;;4982264;28;20054;-77
2024/01/03 08:07:49;;;;;;;13.07;1.55;;;9.50;99.90;;;;;;4999635;28;20048;-77
2024/01/03 08:10:15;;;;;;;6.43;1.33;;;9.50;99.90;;;;;;5083628;28;20054;-76
2024/01/03 08:12:41;;;;;;;2.42;0.88;;;9.50;99.90;;;;;;5012649;28;20046;-77
2024/01/03 08:15:07;;;;;;;5.40;1.33;;;9.50;99.90;;;;;;5012011;28;20054;-76
2024/01/03 08:17:33;;;;;;;9.02;1.45;;;9.60;99.90;;;;;;4997064;28;20038;-76
2024/01/03 08:19:59;;;;;;;9.07;1.75;;;9.60;99.90;;;;;;4994800;28;20038;-77
2024/01/03 08:22:25;;;;;;;8.65;1.15;;;9.60;99.90;;;;;;5009122;28;20056;-77
2024/01/03 08:24:50;;;;;;;7.22;1.63;;;9.60;99.90;;;;;;5010759;28;20080;-77
2024/01/03 08:27:17;;;;;;;14.15;1.77;;;9.60;99.90;;;;;;5008111;28;20056;-77
2024/01/03 08:29:43;;;;;;;5.05;1.23;;;9.60;99.90;;;;;;5008328;28;20480;-77
2024/01/03 08:32:09;;;;;;;12.05;1.70;;;9.60;99.90;;;;;;5008410;28;20084;-77
2024/01/03 08:34:35;;;;;;;7.25;1.17;;;9.60;99.90;;;;;;5013196;28;20050;-77
2024/01/03 08:37:01;;;;;;;10.63;1.60;;;9.60;99.90;;;;;;5015104;28;20030;-77
2024/01/03 08:39:26;;;;;;;9.18;1.10;;;9.60;99.90;;;;;;5012722;28;20081;-77
2024/01/03 08:41:55;;;;;;;17.85;1.85;;;9.60;99.90;;;;;;5009390;28;21584;-76
2024/01/03 08:44:21;;;;;;;9.55;1.50;;;9.60;99.90;;;;;;5008069;28;20042;-77
2024/01/03 08:46:47;;;;;;;9.52;1.60;;;9.60;99.90;;;;;;5010706;28;20067;-77
2024/01/03 08:49:13;;;;;;;10.27;1.40;;;9.50;99.90;;;;;;5012685;28;20034;-77
2024/01/03 08:51:39;;;;;;;5.25;1.65;;;9.50;99.90;;;;;;5007501;28;20144;-77
2024/01/03 08:54:05;;;;;;;2.75;0.93;;;9.50;99.90;;;;;;5010627;28;20565;-77
2024/01/03 08:56:31;;;;;;;3.78;1.60;;;9.50;99.90;;;;;;5009000;28;20084;-77
2024/01/03 08:58:57;;;;;;;8.85;1.48;;;9.50;99.90;;;;;;5009594;28;20042;-76
2024/01/03 09:01:23;;;;;;;13.35;1.40;;;9.50;99.90;;;;;;5007799;28;20582;-76
2024/01/03 09:03:50;;;;;;;8.70;1.55;;;9.50;99.90;;;;;;5008747;28;20064;-77
2024/01/03 09:06:23;;;;;;;9.00;1.30;;;9.60;99.90;;;;;;5008666;28;20042;-76
2024/01/03 09:08:50;;;;;;;4.15;1.15;;;9.60;99.90;;;;;;5014956;28;20129;-76
2024/01/03 09:11:18;;;;;;;7.03;1.33;;;9.60;99.90;;;;;;4992149;28;20101;-76
2024/01/03 09:13:48;;;;;;;11.77;0.80;;;9.60;99.90;;;;;;4995473;28;20048;-76
2024/01/03 09:16:16;;;;;;;6.35;0.68;;;9.70;99.90;;;;;;5015222;28;20482;-76
2024/01/03 09:18:42;;;;;;;10.48;1.73;;;9.70;99.90;;;;;;4997447;28;20050;-77
2024/01/03 09:21:08;;;;;;;10.13;1.88;;;9.70;99.90;;;;;;5011988;28;20056;-77
2024/01/03 09:23:34;;;;;;;10.02;1.35;;;9.70;99.90;;;;;;4986453;28;20513;-76
2024/01/03 09:26:03;;;;;;;11.40;1.60;;;9.80;99.90;;;;;;5012547;28;20072;-76
2024/01/03 09:28:29;;;;;;;12.60;1.23;;;9.80;99.90;;;;;;4998975;28;20050;-76
2024/01/03 09:30:55;;;;;;;9.50;1.30;;;9.90;99.90;;;;;;5012759;28;20858;-77
2024/01/03 09:33:20;;;;;;;9.25;1.48;;;9.90;99.90;;;;;;5023151;28;20574;-77
2024/01/03 09:35:46;;;;;;;7.85;1.10;;;9.90;99.90;;;;;;4977896;28;20049;-77
2024/01/03 09:38:13;;;;;;;6.97;1.23;;;10.00;99.90;;;;;;5004296;28;20122;-77
2024/01/03 09:40:40;;;;;;;12.00;1.42;;;10.30;99.90;;;;;;5014797;28;20056;-77
2024/01/03 09:43:06;;;;;;;11.82;1.10;;;10.50;99.90;;;;;;5013100;28;20078;-77
2024/01/03 09:45:32;;;;;;;2.70;1.08;;;10.40;99.90;;;;;;4998889;28;20457;-77
2024/01/03 09:47:58;;;;;;;2.50;0.57;;;10.20;99.90;;;;;;4994240;28;20046;-76
2024/01/03 09:50:24;;;;;;;4.22;1.27;;;10.00;99.90;;;;;;4980376;28;20079;-77
2024/01/03 09:52:50;;;;;;;0.55;0.45;;;10.00;99.90;;;;;;5018513;28;20041;-76
2024/01/03 09:55:17;;;;;;;6.90;1.27;;;9.90;99.90;;;;;;5013425;28;20050;-76
2024/01/03 09:57:43;;;;;;;4.28;0.68;;;10.00;99.90;;;;;;5017512;28;20041;-76
2024/01/03 10:00:09;;;;;;;16.00;1.27;;;9.90;99.90;;;;;;4996338;28;20539;-76
2024/01/03 10:02:38;;;;;;;5.68;0.80;;;9.90;99.90;;;;;;5015287;28;20052;-77
2024/01/03 10:05:04;;;;;;;7.97;0.77;;;9.80;99.90;;;;;;5003804;28;20048;-76
2024/01/03 10:07:36;;;;;;;7.38;0.68;;;9.80;99.90;;;;;;5011783;28;20109;-76
2024/01/03 10:10:03;;;;;;;5.32;0.73;;;9.80;99.90;;;;;;4993858;28;20052;-77
2024/01/03 10:12:32;;;;;;;11.02;1.67;;;9.80;99.90;;;;;;5017143;28;20092;-76
2024/01/03 10:15:18;;;;;;;6.72;1.33;;;9.80;99.90;;;;;;5001266;28;20053;-76
2024/01/03 10:17:45;;;;;;;13.38;1.92;;;9.70;99.90;;;;;;5010976;28;20061;-76
2024/01/03 10:20:28;;;;;;;2.58;0.70;;;9.70;99.90;;;;;;4994384;28;20049;-76
2024/01/03 10:23:14;;;;;;;6.78;1.33;;;9.60;99.90;;;;;;5009621;28;20050;-76
2024/01/03 10:25:44;;;;;;;8.48;1.23;;;9.60;99.90;;;;;;5010023;28;20379;-76
2024/01/03 10:28:16;;;;;;;9.13;1.35;;;9.60;99.90;;;;;;4994679;28;20045;-77
2024/01/03 10:30:42;;;;;;;10.63;1.73;;;9.60;99.90;;;;;;5010269;28;20557;-77
2024/01/03 10:33:10;;;;;;;4.63;1.10;;;9.70;99.90;;;;;;5010137;28;20136;-77
2024/01/03 10:35:44;;;;;;;5.10;1.20;;;9.70;99.90;;;;;;5010682;28;20061;-76
2024/01/03 10:38:10;;;;;;;13.82;1.40;;;9.70;99.90;;;;;;4992956;28;20125;-77
2024/01/03 10:40:39;;;;;;;4.68;1.58;;;9.80;99.90;;;;;;5011243;28;20042;-76
2024/01/03 10:43:07;;;;;;;18.00;1.55;;;9.80;99.90;;;;;;4991554;28;20144;-77
2024/01/03 10:45:33;;;;;;;1.90;0.95;;;9.90;99.90;;;;;;4997341;28;20046;-77
2024/01/03 10:48:00;;;;;;;6.95;1.40;;;9.90;99.90;;;;;;5011250;28;20054;-77
2024/01/03 10:50:25;;;;;;;5.80;2.03;;;9.90;99.90;;;;;;5016569;28;20053;-76
2024/01/03 10:52:58;;;;;;;3.33;1.08;;;10.00;99.90;;;;;;5017011;28;20038;-77
2024/01/03 10:55:39;;;;;;;10.43;1.48;;;9.90;99.90;;;;;;5016264;28;20038;-76
2024/01/03 10:58:12;;;;;;;6.38;0.95;;;9.90;99.90;;;;;;5017429;28;20409;-76
2024/01/03 11:00:55;;;;;;;7.43;1.75;;;9.90;99.90;;;;;;5014052;28;20083;-76
2024/01/03 11:03:48;;;;;;;4.38;2.03;;;9.90;99.90;;;;;;5016782;28;20068;-76
2024/01/03 11:06:38;;;;;;;18.42;1.52;;;9.80;99.90;;;;;;4994782;28;20109;-78
2024/01/03 11:09:04;;;;;;;10.18;1.52;;;9.80;99.90;;;;;;4992727;28;20053;-76
2024/01/03 11:11:32;;;;;;;9.45;1.30;;;9.70;99.90;;;;;;4979514;28;20038;-76
2024/01/03 11:14:02;;;;;;;11.20;1.20;;;9.70;99.90;;;;;;4999643;28;20098;-76
2024/01/03 11:16:37;;;;;;;14.07;1.73;;;9.70;99.90;;;;;;5000645;28;20105;-76
2024/01/03 11:19:04;;;;;;;11.65;2.03;;;9.60;99.90;;;;;;5012788;28;20076;-76
2024/01/03 11:21:34;;;;;;;3.72;1.50;;;9.60;99.90;;;;;;4995727;28;20116;-75
2024/01/03 11:24:06;;;;;;;8.30;1.05;;;9.60;99.90;;;;;;5008653;28;20065;-75
2024/01/03 11:27:03;;;;;;;7.47;1.30;;;9.60;99.90;;;;;;4997233;28;20041;-75
2024/01/03 11:29:45;;;;;;;13.77;1.38;;;9.70;99.90;;;;;;4993601;28;20088;-75
2024/01/03 11:32:35;;;;;;;5.07;0.93;;;9.70;99.90;;;;;;5004572;28;20111;-76
2024/01/03 11:35:01;;;;;;;3.20;1.00;;;9.70;99.90;;;;;;4993663;28;20465;-75
2024/01/03 11:37:30;;;;;;;1.65;1.00;;;9.60;99.90;;;;;;4994258;28;20042;-75
2024/01/03 11:39:57;;;;;;;2.92;0.88;;;9.60;99.90;;;;;;4995559;28;20124;-75
2024/01/03 11:42:23;;;;;;;2.30;0.80;;;9.60;99.90;;;;;;4999177;28;20107;-75
2024/01/03 11:45:08;;;;;;;6.40;1.00;;;9.50;99.90;;;;;;4999955;28;20478;-75
2024/01/03 11:47:39;;;;;;;9.38;0.82;;;9.50;99.90;;;;;;5014492;28;20050;-76
2024/01/03 11:50:08;;;;;;;1.88;0.75;;;9.50;99.90;;;;;;4999703;28;20071;-76
2024/01/03 11:52:36;;;;;;;9.77;1.33;;;9.50;99.90;;;;;;4999418;28;20046;-76
2024/01/03 11:55:13;;;;;;;13.70;1.38;;;9.50;99.90;;;;;;5016652;28;20387;-76
2024/01/03 11:57:46;;;;;;;7.95;1.60;;;9.50;99.90;;;;;;5000347;28;20402;-76
2024/01/03 12:00:21;;;;;;;1.70;0.50;;;9.40;99.90;;;;;;5049181;28;20048;-76
2024/01/03 12:02:57;;;;;;;4.28;0.82;;;9.40;99.90;;;;;;5012746;28;20084;-76
2024/01/03 12:05:25;;;;;;;7.28;1.65;;;9.40;99.90;;;;;;5007824;28;20050;-76
2024/01/03 12:07:52;;;;;;;4.20;1.25;;;9.40;99.90;;;;;;5015313;28;20033;-76
2024/01/03 12:10:19;;;;;;;4.47;1.10;;;9.40;99.90;;;;;;4981750;28;20057;-76
2024/01/03 12:12:46;;;;;;;11.98;1.15;;;9.40;99.90;;;;;;4999072;28;20073;-76
2024/01/03 12:15:24;;;;;;;5.72;1.40;;;9.30;99.90;;;;;;4999797;28;20049;-76
2024/01/03 12:17:50;;;;;;;9.07;1.15;;;9.30;99.90;;;;;;5069077;28;20085;-76
2024/01/03 12:20:18;;;;;;;7.65;0.93;;;9.30;99.90;;;;;;4991678;28;20525;-76
2024/01/03 12:22:44;;;;;;;2.05;0.70;;;9.20;99.90;;;;;;5078254;28;20038;-76
2024/01/03 12:25:26;;;;;;;6.60;0.70;;;9.20;99.90;;;;;;4992174;28;20049;-76
2024/01/03 12:27:56;;;;;;;2.85;0.88;;;9.20;99.90;;;;;;4979325;28;20445;-78
2024/01/03 12:30:22;;;;;;;8.07;0.90;;;9.20;99.90;;;;;;4989426;28;20061;-76
2024/01/03 12:32:49;;;;;;;3.92;0.95;;;9.20;99.90;;;;;;4993154;28;20045;-77
2024/01/03 12:35:14;;;;;;;8.27;1.25;;;9.10;99.90;;;;;;4977998;28;20053;-77
2024/01/03 12:37:46;;;;;;;2.83;0.82;;;9.20;99.90;;;;;;4993098;28;20054;-76
2024/01/03 12:40:16;;;;;;;2.57;0.60;;;9.20;99.90;;;;;;4994941;28;20075;-76
2024/01/03 12:42:43;;;;;;;4.53;1.42;;;9.10;99.90;;;;;;4992043;28;20308;-77
2024/01/03 12:45:09;;;;;;;5.35;0.77;;;9.10;99.90;;;;;;5008922;28;20050;-76
2024/01/03 12:47:36;;;;;;;2.08;0.30;;;9.10;99.90;;;;;;4992788;28;20068;-77
2024/01/03 12:50:02;;;;;;;6.60;0.75;;;9.10;99.90;;;;;;5009722;28;20049;-76
2024/01/03 12:52:29;;;;;;;9.55;1.25;;;9.10;99.90;;;;;;4972389;28;20099;-76
2024/01/03 12:54:55;;;;;;;9.63;1.13;;;9.10;99.90;;;;;;5024773;28;20114;-76
2024/01/03 12:57:22;;;;;;;7.72;1.33;;;9.10;99.90;;;;;;4993413;28;20045;-77